• Join FlightAware (Why Join?)
  • Login
  • US Flag 
06:46AM EST


 

Airport Tracker/Info


-or-


 

Live Flight TrackerFlight Track Log ✈ SKW7367 ✈ 17-Sep-2013 ✈ KDTW - KAPN

Flight Track Log - Related Links

Times and Time Zones

All times are in EDT time to prevent confusion due to time zone crossing. See the SKW7367 flight status page for this flight to view local times or setup timezone preferences in your user account.

Time Position Orientation Groundspeed Altitude Reporting Facility
EDT Latitude Longitude Course Direction KTS MPH feet Rate Location/Type
04:14PM 42.2125 -83.3653 North 150 173 1,300  Level Cleveland Center
04:15PM 42.1719 -83.4272 229° Southwest 240 276 4,000 2,700 Climbing Cleveland Center
04:16PM 42.1333 -83.4878 229° Southwest 257 296 6,700 3,480 Climbing Cleveland Center
04:16PM 42.1328 -83.5003 267° West 272 313 7,200 3,300 Climbing Cleveland Center
04:17PM 42.1600 -83.5775 295° West 289 333 9,900 2,640 Climbing Cleveland Center
04:17PM 42.1547 -83.5744 157° South 286 329 9,800 1,320 Descending Cleveland Center
04:18PM 42.5827 -83.3790 North  Level Estimated
04:18PM 42.2536 -83.6136 344° North 321 369 11,400  Level Cleveland Center
04:19PM 42.6753 -83.3855 North  Level Estimated
04:19PM 42.3247 -83.6061 North 317 365 12,700  Level Cleveland Center
04:19PM 42.3472 -83.5961 18° North 325 374 13,000 240 Climbing Cleveland Center
04:20PM 42.4239 -83.5644 17° North 351 404 13,000  Level Cleveland Center
04:21PM 42.5208 -83.5244 17° North 375 432 13,000 720 Level Cleveland Center
04:22PM 42.6400 -83.4758 17° North 373 429 14,600 960 Climbing Cleveland Center
04:23PM 42.7411 -83.4353 16° North 376 433 15,000 180 Climbing Cleveland Center
04:24PM 42.8364 -83.3942 18° North 358 412 15,000  Level Cleveland Center
04:25PM 42.9222 -83.3631 15° North 324 373 15,000  Level Cleveland Center
04:26PM 43.0111 -83.3683 358° North 320 368 15,000  Level Cleveland Center
04:27PM 43.0928 -83.3925 348° North 314 361 15,000  Level Cleveland Center
04:28PM 43.1608 -83.4975 312° West 308 354 15,000  Level Cleveland Center
04:29PM 43.2172 -83.5856 311° West 309 356 15,000  Level Cleveland Center
04:30PM 43.2733 -83.6700 312° West 302 348 15,000  Level Cleveland Center
04:31PM 43.3306 -83.7603 311° West 310 357 15,000  Level Cleveland Center
04:32PM 43.3869 -83.8475 312° West 308 354 15,000  Level Cleveland Center
04:33PM 43.4561 -83.9558 311° West 313 360 15,000  Level Cleveland Center
04:34PM 43.5131 -84.0456 311° West 310 357 15,000  Level Cleveland Center
04:35PM 43.6028 -84.0500 358° North 320 368 15,000  Level Cleveland Center
04:36PM 43.6372 -84.0494 North 321 369 15,000 60 Level Minneapolis Center
04:37PM 43.7142 -84.1103 330° Northwest 322 371 15,100  Climbing Minneapolis Center
04:38PM 43.8031 -84.1117 359° North 328 377 15,000 -60 Descending Minneapolis Center
04:39PM 43.9072 -84.0669 17° North 326 375 15,000  Level Minneapolis Center
04:40PM 43.9939 -84.0303 17° North 327 376 15,000  Level Minneapolis Center
04:41PM 44.0867 -83.9911 17° North 324 373 15,000 -540 Level Minneapolis Center
04:42PM 44.1675 -83.9561 17° North 311 358 13,900 -1,320 Descending Minneapolis Center
04:43PM 44.2508 -83.9219 16° North 292 336 12,300 -1,380 Descending Minneapolis Center
04:44PM 44.3297 -83.8869 18° North 282 325 11,100 -660 Descending Minneapolis Center
04:45PM 44.3975 -83.8578 17° North 262 302 11,000 -60 Descending Minneapolis Center
04:46PM 44.4733 -83.8253 17° North 266 306 11,000 -360 Level Minneapolis Center
04:47PM 44.5444 -83.7942 17° North 269 310 10,300 -1,380 Descending Minneapolis Center
04:48PM 44.6169 -83.7622 17° North 274 315 8,200 -2,160 Descending Minneapolis Center
04:49PM 44.6972 -83.7275 17° North 281 323 5,800 -1,920 Descending Minneapolis Center
04:50PM 44.7753 -83.6928 18° North 277 319 4,200 -1,080 Descending Minneapolis Center
04:51PM 44.8322 -83.6517 27° Northeast 238 274 3,600 -480 Descending Minneapolis Center
04:52PM 44.8939 -83.6089 26° Northeast 232 267 3,300 -420 Descending Minneapolis Center
04:53PM 44.9544 -83.5667 26° Northeast 228 262 2,800 -540 Descending Minneapolis Center
04:54PM 45.0044 -83.5614 North 187 215 2,200 -780 Descending Minneapolis Center
04:56PM 45.0436 -83.5614 360° North 142 163 1,200 -720 Descending Minneapolis Center
04:57PM 45.0778 -83.5611 360° North 133 153 800 -420 Descending Minneapolis Center